sensor_id;sensor_type;location;lat;lon;timestamp;temperature;humidity
35635;DHT22;21757;43.610;1.440;2023-11-21T00:02:21;11.00;98.20
35635;DHT22;21757;43.610;1.440;2023-11-21T00:04:48;11.00;97.90
35635;DHT22;21757;43.610;1.440;2023-11-21T00:07:14;11.00;98.10
35635;DHT22;21757;43.610;1.440;2023-11-21T00:09:40;11.00;98.20
35635;DHT22;21757;43.610;1.440;2023-11-21T00:12:09;11.00;98.50
35635;DHT22;21757;43.610;1.440;2023-11-21T00:14:39;11.00;98.30
35635;DHT22;21757;43.610;1.440;2023-11-21T00:17:05;11.10;98.80
35635;DHT22;21757;43.610;1.440;2023-11-21T00:19:31;11.00;98.60
35635;DHT22;21757;43.610;1.440;2023-11-21T00:21:57;11.00;98.40
35635;DHT22;21757;43.610;1.440;2023-11-21T00:24:24;11.10;99.20
35635;DHT22;21757;43.610;1.440;2023-11-21T00:26:50;11.10;98.90
35635;DHT22;21757;43.610;1.440;2023-11-21T00:29:16;11.00;99.00
35635;DHT22;21757;43.610;1.440;2023-11-21T00:31:43;11.00;99.10
35635;DHT22;21757;43.610;1.440;2023-11-21T00:34:09;11.00;99.10
35635;DHT22;21757;43.610;1.440;2023-11-21T00:36:35;11.00;99.30
35635;DHT22;21757;43.610;1.440;2023-11-21T00:39:00;11.00;99.00
35635;DHT22;21757;43.610;1.440;2023-11-21T00:41:27;11.00;99.10
35635;DHT22;21757;43.610;1.440;2023-11-21T00:43:53;10.90;98.60
35635;DHT22;21757;43.610;1.440;2023-11-21T00:46:19;10.90;98.60
35635;DHT22;21757;43.610;1.440;2023-11-21T00:48:45;11.00;98.90
35635;DHT22;21757;43.610;1.440;2023-11-21T00:51:10;11.00;98.90
35635;DHT22;21757;43.610;1.440;2023-11-21T00:53:36;11.00;99.20
35635;DHT22;21757;43.610;1.440;2023-11-21T00:56:01;11.00;99.20
35635;DHT22;21757;43.610;1.440;2023-11-21T00:58:28;10.90;99.20
35635;DHT22;21757;43.610;1.440;2023-11-21T01:00:53;10.90;98.80
35635;DHT22;21757;43.610;1.440;2023-11-21T01:03:19;11.00;99.20
35635;DHT22;21757;43.610;1.440;2023-11-21T01:05:45;11.00;99.40
35635;DHT22;21757;43.610;1.440;2023-11-21T01:08:11;11.10;99.80
35635;DHT22;21757;43.610;1.440;2023-11-21T01:10:37;11.10;99.90
35635;DHT22;21757;43.610;1.440;2023-11-21T01:13:03;11.10;99.90
35635;DHT22;21757;43.610;1.440;2023-11-21T01:15:33;11.10;99.90
35635;DHT22;21757;43.610;1.440;2023-11-21T01:17:58;11.10;99.90
35635;DHT22;21757;43.610;1.440;2023-11-21T01:20:24;11.00;99.90
35635;DHT22;21757;43.610;1.440;2023-11-21T01:22:50;11.00;99.90
35635;DHT22;21757;43.610;1.440;2023-11-21T01:25:15;11.00;99.90
35635;DHT22;21757;43.610;1.440;2023-11-21T01:27:42;11.00;99.90
35635;DHT22;21757;43.610;1.440;2023-11-21T01:30:08;11.00;99.90
35635;DHT22;21757;43.610;1.440;2023-11-21T01:32:36;11.00;99.90
35635;DHT22;21757;43.610;1.440;2023-11-21T01:35:03;11.00;99.90
35635;DHT22;21757;43.610;1.440;2023-11-21T01:37:30;10.90;99.90
35635;DHT22;21757;43.610;1.440;2023-11-21T01:39:56;10.90;99.90
35635;DHT22;21757;43.610;1.440;2023-11-21T01:42:22;10.90;99.90
35635;DHT22;21757;43.610;1.440;2023-11-21T01:44:48;11.00;99.90
35635;DHT22;21757;43.610;1.440;2023-11-21T01:47:14;11.10;99.90
35635;DHT22;21757;43.610;1.440;2023-11-21T01:49:43;11.10;99.90
35635;DHT22;21757;43.610;1.440;2023-11-21T01:52:10;11.20;99.90
35635;DHT22;21757;43.610;1.440;2023-11-21T01:54:37;11.10;99.90
35635;DHT22;21757;43.610;1.440;2023-11-21T01:57:04;11.10;99.90
35635;DHT22;21757;43.610;1.440;2023-11-21T01:59:36;11.10;99.90
35635;DHT22;21757;43.610;1.440;2023-11-21T02:02:06;11.00;99.50
35635;DHT22;21757;43.610;1.440;2023-11-21T02:04:32;11.00;98.90
35635;DHT22;21757;43.610;1.440;2023-11-21T02:06:59;11.00;98.70
35635;DHT22;21757;43.610;1.440;2023-11-21T02:09:28;11.00;98.50
35635;DHT22;21757;43.610;1.440;2023-11-21T02:11:58;11.00;98.60
35635;DHT22;21757;43.610;1.440;2023-11-21T02:14:25;11.00;98.50
35635;DHT22;21757;43.610;1.440;2023-11-21T02:16:52;11.00;98.60
35635;DHT22;21757;43.610;1.440;2023-11-21T02:19:20;11.00;98.50
35635;DHT22;21757;43.610;1.440;2023-11-21T02:21:49;11.00;98.50
35635;DHT22;21757;43.610;1.440;2023-11-21T02:24:15;11.00;98.50
35635;DHT22;21757;43.610;1.440;2023-11-21T02:26:42;11.00;98.20
35635;DHT22;21757;43.610;1.440;2023-11-21T02:29:08;10.90;98.10
35635;DHT22;21757;43.610;1.440;2023-11-21T02:31:37;10.90;98.10
35635;DHT22;21757;43.610;1.440;2023-11-21T02:34:11;10.90;97.90
35635;DHT22;21757;43.610;1.440;2023-11-21T02:36:38;10.90;97.80
35635;DHT22;21757;43.610;1.440;2023-11-21T02:39:04;10.90;97.90
35635;DHT22;21757;43.610;1.440;2023-11-21T02:41:30;10.90;97.90
35635;DHT22;21757;43.610;1.440;2023-11-21T02:43:55;10.90;97.70
35635;DHT22;21757;43.610;1.440;2023-11-21T02:46:21;10.90;97.70
35635;DHT22;21757;43.610;1.440;2023-11-21T02:48:47;10.80;97.50
35635;DHT22;21757;43.610;1.440;2023-11-21T02:51:13;10.70;97.30
35635;DHT22;21757;43.610;1.440;2023-11-21T02:53:38;10.70;96.90
35635;DHT22;21757;43.610;1.440;2023-11-21T02:56:05;10.70;96.50
35635;DHT22;21757;43.610;1.440;2023-11-21T02:58:30;10.70;96.30
35635;DHT22;21757;43.610;1.440;2023-11-21T03:00:56;10.60;96.50
35635;DHT22;21757;43.610;1.440;2023-11-21T03:03:22;10.50;96.30
35635;DHT22;21757;43.610;1.440;2023-11-21T03:05:49;10.40;96.00
35635;DHT22;21757;43.610;1.440;2023-11-21T03:08:15;10.40;95.70
35635;DHT22;21757;43.610;1.440;2023-11-21T03:10:41;10.40;95.70
35635;DHT22;21757;43.610;1.440;2023-11-21T03:13:06;10.50;96.00
35635;DHT22;21757;43.610;1.440;2023-11-21T03:15:32;10.60;96.80
35635;DHT22;21757;43.610;1.440;2023-11-21T03:18:00;10.70;96.80
35635;DHT22;21757;43.610;1.440;2023-11-21T03:20:26;10.70;97.00
35635;DHT22;21757;43.610;1.440;2023-11-21T03:22:52;10.50;97.00
35635;DHT22;21757;43.610;1.440;2023-11-21T03:25:17;10.50;96.60
35635;DHT22;21757;43.610;1.440;2023-11-21T03:27:43;10.50;96.20
35635;DHT22;21757;43.610;1.440;2023-11-21T03:30:10;10.50;96.60
35635;DHT22;21757;43.610;1.440;2023-11-21T03:32:36;10.60;96.20
35635;DHT22;21757;43.610;1.440;2023-11-21T03:35:02;10.50;96.10
35635;DHT22;21757;43.610;1.440;2023-11-21T03:37:29;10.50;96.00
35635;DHT22;21757;43.610;1.440;2023-11-21T03:39:55;10.30;95.90
35635;DHT22;21757;43.610;1.440;2023-11-21T03:42:21;10.30;95.40
35635;DHT22;21757;43.610;1.440;2023-11-21T03:44:47;10.40;95.30
35635;DHT22;21757;43.610;1.440;2023-11-21T03:47:12;10.50;95.40
35635;DHT22;21757;43.610;1.440;2023-11-21T03:49:38;10.50;95.60
35635;DHT22;21757;43.610;1.440;2023-11-21T03:52:04;10.50;96.00
35635;DHT22;21757;43.610;1.440;2023-11-21T03:54:30;10.50;96.70
35635;DHT22;21757;43.610;1.440;2023-11-21T03:56:56;10.40;96.50
35635;DHT22;21757;43.610;1.440;2023-11-21T03:59:21;10.50;96.30
35635;DHT22;21757;43.610;1.440;2023-11-21T04:01:50;10.60;96.60
35635;DHT22;21757;43.610;1.440;2023-11-21T04:04:15;10.60;97.10
35635;DHT22;21757;43.610;1.440;2023-11-21T04:06:41;10.50;97.10
35635;DHT22;21757;43.610;1.440;2023-11-21T04:09:07;10.40;96.80
35635;DHT22;21757;43.610;1.440;2023-11-21T04:11:32;10.50;96.40
35635;DHT22;21757;43.610;1.440;2023-11-21T04:13:58;10.40;96.40
35635;DHT22;21757;43.610;1.440;2023-11-21T04:16:24;10.40;99.90
35635;DHT22;21757;43.610;1.440;2023-11-21T04:18:50;10.40;96.50
35635;DHT22;21757;43.610;1.440;2023-11-21T04:21:15;10.40;96.90
35635;DHT22;21757;43.610;1.440;2023-11-21T04:23:42;10.40;96.80
35635;DHT22;21757;43.610;1.440;2023-11-21T04:26:08;10.30;96.30
35635;DHT22;21757;43.610;1.440;2023-11-21T04:28:33;10.30;96.30
35635;DHT22;21757;43.610;1.440;2023-11-21T04:31:00;10.20;96.00
35635;DHT22;21757;43.610;1.440;2023-11-21T04:33:25;10.20;95.70
35635;DHT22;21757;43.610;1.440;2023-11-21T04:35:51;10.30;99.90
35635;DHT22;21757;43.610;1.440;2023-11-21T04:38:17;10.30;96.00
35635;DHT22;21757;43.610;1.440;2023-11-21T04:40:42;10.20;96.20
35635;DHT22;21757;43.610;1.440;2023-11-21T04:43:08;10.30;95.80
35635;DHT22;21757;43.610;1.440;2023-11-21T04:45:34;10.30;96.20
35635;DHT22;21757;43.610;1.440;2023-11-21T04:47:59;10.30;96.30
35635;DHT22;21757;43.610;1.440;2023-11-21T04:50:25;10.30;96.80
35635;DHT22;21757;43.610;1.440;2023-11-21T04:52:54;10.30;96.70
35635;DHT22;21757;43.610;1.440;2023-11-21T04:55:19;10.30;96.70
35635;DHT22;21757;43.610;1.440;2023-11-21T04:57:45;10.40;96.80
35635;DHT22;21757;43.610;1.440;2023-11-21T05:00:12;10.50;97.40
35635;DHT22;21757;43.610;1.440;2023-11-21T05:02:39;10.50;97.60
35635;DHT22;21757;43.610;1.440;2023-11-21T05:05:05;10.50;97.60
35635;DHT22;21757;43.610;1.440;2023-11-21T05:07:32;10.50;97.90
35635;DHT22;21757;43.610;1.440;2023-11-21T05:09:57;10.60;98.00
35635;DHT22;21757;43.610;1.440;2023-11-21T05:12:24;10.60;98.40
35635;DHT22;21757;43.610;1.440;2023-11-21T05:14:50;10.70;98.60
35635;DHT22;21757;43.610;1.440;2023-11-21T05:17:16;10.70;98.50
35635;DHT22;21757;43.610;1.440;2023-11-21T05:19:42;10.70;98.60
35635;DHT22;21757;43.610;1.440;2023-11-21T05:22:08;10.70;98.70
35635;DHT22;21757;43.610;1.440;2023-11-21T05:24:34;10.70;99.00
35635;DHT22;21757;43.610;1.440;2023-11-21T05:27:01;10.80;99.10
35635;DHT22;21757;43.610;1.440;2023-11-21T05:29:26;10.80;98.80
35635;DHT22;21757;43.610;1.440;2023-11-21T05:31:52;10.80;98.90
35635;DHT22;21757;43.610;1.440;2023-11-21T05:34:18;10.80;99.10
35635;DHT22;21757;43.610;1.440;2023-11-21T05:36:46;10.80;99.20
35635;DHT22;21757;43.610;1.440;2023-11-21T05:39:11;10.80;99.40
35635;DHT22;21757;43.610;1.440;2023-11-21T05:41:37;10.80;99.30
35635;DHT22;21757;43.610;1.440;2023-11-21T05:44:03;10.80;99.10
35635;DHT22;21757;43.610;1.440;2023-11-21T05:46:28;10.90;99.20
35635;DHT22;21757;43.610;1.440;2023-11-21T05:48:54;10.80;99.50
35635;DHT22;21757;43.610;1.440;2023-11-21T05:51:20;10.80;99.20
35635;DHT22;21757;43.610;1.440;2023-11-21T05:53:46;10.90;99.30
35635;DHT22;21757;43.610;1.440;2023-11-21T05:56:12;10.90;99.20
35635;DHT22;21757;43.610;1.440;2023-11-21T05:58:39;10.90;99.10
35635;DHT22;21757;43.610;1.440;2023-11-21T06:01:05;10.90;99.00
35635;DHT22;21757;43.610;1.440;2023-11-21T06:03:35;10.90;98.80
35635;DHT22;21757;43.610;1.440;2023-11-21T06:06:00;10.90;98.80
35635;DHT22;21757;43.610;1.440;2023-11-21T06:08:26;10.90;98.60
35635;DHT22;21757;43.610;1.440;2023-11-21T06:10:52;10.90;98.40
35635;DHT22;21757;43.610;1.440;2023-11-21T06:13:17;10.70;97.00
35635;DHT22;21757;43.610;1.440;2023-11-21T06:15:49;10.70;96.20
35635;DHT22;21757;43.610;1.440;2023-11-21T06:18:16;10.70;96.40
35635;DHT22;21757;43.610;1.440;2023-11-21T06:20:41;10.70;95.70
35635;DHT22;21757;43.610;1.440;2023-11-21T06:23:07;10.70;96.00
35635;DHT22;21757;43.610;1.440;2023-11-21T06:25:33;10.70;96.10
35635;DHT22;21757;43.610;1.440;2023-11-21T06:28:01;10.80;96.10
35635;DHT22;21757;43.610;1.440;2023-11-21T06:30:27;10.80;96.20
35635;DHT22;21757;43.610;1.440;2023-11-21T06:32:54;10.80;96.50
35635;DHT22;21757;43.610;1.440;2023-11-21T06:35:20;10.80;97.40
35635;DHT22;21757;43.610;1.440;2023-11-21T06:37:46;10.80;96.50
35635;DHT22;21757;43.610;1.440;2023-11-21T06:40:13;10.70;96.10
35635;DHT22;21757;43.610;1.440;2023-11-21T06:42:41;10.80;96.10
35635;DHT22;21757;43.610;1.440;2023-11-21T06:45:07;10.80;95.40
35635;DHT22;21757;43.610;1.440;2023-11-21T06:47:33;10.70;95.60
35635;DHT22;21757;43.610;1.440;2023-11-21T06:50:00;10.80;95.40
35635;DHT22;21757;43.610;1.440;2023-11-21T06:52:26;10.80;95.90
35635;DHT22;21757;43.610;1.440;2023-11-21T06:54:51;10.90;96.00
35635;DHT22;21757;43.610;1.440;2023-11-21T06:57:17;10.80;95.70
35635;DHT22;21757;43.610;1.440;2023-11-21T06:59:43;10.80;95.40
35635;DHT22;21757;43.610;1.440;2023-11-21T07:02:09;10.80;95.30
35635;DHT22;21757;43.610;1.440;2023-11-21T07:04:35;10.80;95.00
35635;DHT22;21757;43.610;1.440;2023-11-21T07:07:02;10.80;95.20
35635;DHT22;21757;43.610;1.440;2023-11-21T07:09:28;10.80;95.20
35635;DHT22;21757;43.610;1.440;2023-11-21T07:11:53;10.80;94.80
35635;DHT22;21757;43.610;1.440;2023-11-21T07:14:19;10.80;95.10
35635;DHT22;21757;43.610;1.440;2023-11-21T07:16:48;10.80;94.90
35635;DHT22;21757;43.610;1.440;2023-11-21T07:19:14;10.80;94.70
35635;DHT22;21757;43.610;1.440;2023-11-21T07:21:40;10.80;95.00
35635;DHT22;21757;43.610;1.440;2023-11-21T07:24:07;10.80;94.70
35635;DHT22;21757;43.610;1.440;2023-11-21T07:26:34;10.90;94.50
35635;DHT22;21757;43.610;1.440;2023-11-21T07:29:00;10.90;94.80
35635;DHT22;21757;43.610;1.440;2023-11-21T07:31:26;10.90;94.80
35635;DHT22;21757;43.610;1.440;2023-11-21T07:33:52;10.90;94.60
35635;DHT22;21757;43.610;1.440;2023-11-21T07:36:19;10.90;94.70
35635;DHT22;21757;43.610;1.440;2023-11-21T07:38:46;10.80;94.90
35635;DHT22;21757;43.610;1.440;2023-11-21T07:41:12;10.80;94.80
35635;DHT22;21757;43.610;1.440;2023-11-21T07:43:41;10.80;94.80
35635;DHT22;21757;43.610;1.440;2023-11-21T07:46:07;10.80;95.40
35635;DHT22;21757;43.610;1.440;2023-11-21T07:48:33;10.80;95.50
35635;DHT22;21757;43.610;1.440;2023-11-21T07:51:00;10.80;95.00
35635;DHT22;21757;43.610;1.440;2023-11-21T07:53:27;10.90;95.70
35635;DHT22;21757;43.610;1.440;2023-11-21T07:55:54;10.90;95.40
35635;DHT22;21757;43.610;1.440;2023-11-21T07:58:20;10.90;95.70
35635;DHT22;21757;43.610;1.440;2023-11-21T08:00:46;10.90;95.40
35635;DHT22;21757;43.610;1.440;2023-11-21T08:03:13;10.90;95.50
35635;DHT22;21757;43.610;1.440;2023-11-21T08:05:39;11.00;94.40
35635;DHT22;21757;43.610;1.440;2023-11-21T08:08:05;11.00;95.30
35635;DHT22;21757;43.610;1.440;2023-11-21T08:10:32;11.10;95.00
35635;DHT22;21757;43.610;1.440;2023-11-21T08:12:57;11.10;95.80
35635;DHT22;21757;43.610;1.440;2023-11-21T08:15:23;11.30;95.50
35635;DHT22;21757;43.610;1.440;2023-11-21T08:17:49;11.30;96.00
35635;DHT22;21757;43.610;1.440;2023-11-21T08:20:15;11.40;96.00
35635;DHT22;21757;43.610;1.440;2023-11-21T08:22:42;11.40;96.30
35635;DHT22;21757;43.610;1.440;2023-11-21T08:25:08;11.50;96.30
35635;DHT22;21757;43.610;1.440;2023-11-21T08:27:34;11.50;96.80
35635;DHT22;21757;43.610;1.440;2023-11-21T08:30:03;11.50;96.80
35635;DHT22;21757;43.610;1.440;2023-11-21T08:32:29;11.60;96.90
35635;DHT22;21757;43.610;1.440;2023-11-21T08:34:59;11.50;96.70
35635;DHT22;21757;43.610;1.440;2023-11-21T08:37:25;11.60;96.30
35635;DHT22;21757;43.610;1.440;2023-11-21T08:39:53;11.70;96.30
35635;DHT22;21757;43.610;1.440;2023-11-21T08:42:19;11.70;97.10
35635;DHT22;21757;43.610;1.440;2023-11-21T08:44:45;11.70;96.80
35635;DHT22;21757;43.610;1.440;2023-11-21T08:47:11;11.60;96.90
35635;DHT22;21757;43.610;1.440;2023-11-21T08:49:37;11.70;96.60
35635;DHT22;21757;43.610;1.440;2023-11-21T08:52:03;11.60;97.30
35635;DHT22;21757;43.610;1.440;2023-11-21T08:54:30;11.70;97.00
35635;DHT22;21757;43.610;1.440;2023-11-21T08:56:56;11.70;99.90
35635;DHT22;21757;43.610;1.440;2023-11-21T08:59:26;11.70;97.70
35635;DHT22;21757;43.610;1.440;2023-11-21T09:01:52;11.70;97.20
35635;DHT22;21757;43.610;1.440;2023-11-21T09:04:18;11.70;96.60
35635;DHT22;21757;43.610;1.440;2023-11-21T09:06:44;11.60;96.20
35635;DHT22;21757;43.610;1.440;2023-11-21T09:09:09;11.50;96.00
35635;DHT22;21757;43.610;1.440;2023-11-21T09:11:37;11.60;96.50
35635;DHT22;21757;43.610;1.440;2023-11-21T09:14:03;11.60;95.80
35635;DHT22;21757;43.610;1.440;2023-11-21T09:16:29;11.70;95.80
35635;DHT22;21757;43.610;1.440;2023-11-21T09:18:55;11.80;96.10
35635;DHT22;21757;43.610;1.440;2023-11-21T09:21:20;11.80;96.80
35635;DHT22;21757;43.610;1.440;2023-11-21T09:23:47;11.80;97.00
35635;DHT22;21757;43.610;1.440;2023-11-21T09:26:13;11.80;97.30
35635;DHT22;21757;43.610;1.440;2023-11-21T09:28:41;11.90;97.70
35635;DHT22;21757;43.610;1.440;2023-11-21T09:31:11;12.00;98.20
35635;DHT22;21757;43.610;1.440;2023-11-21T09:33:37;12.00;98.20
35635;DHT22;21757;43.610;1.440;2023-11-21T09:36:04;12.00;98.20
35635;DHT22;21757;43.610;1.440;2023-11-21T09:38:30;12.10;98.70
35635;DHT22;21757;43.610;1.440;2023-11-21T09:40:56;12.10;99.10
35635;DHT22;21757;43.610;1.440;2023-11-21T09:43:24;12.10;98.70
35635;DHT22;21757;43.610;1.440;2023-11-21T09:46:01;12.20;99.30
35635;DHT22;21757;43.610;1.440;2023-11-21T09:48:29;12.20;99.40
35635;DHT22;21757;43.610;1.440;2023-11-21T09:50:56;12.20;99.70
35635;DHT22;21757;43.610;1.440;2023-11-21T09:53:23;12.20;99.80
35635;DHT22;21757;43.610;1.440;2023-11-21T09:55:53;12.20;99.90
35635;DHT22;21757;43.610;1.440;2023-11-21T09:58:20;12.30;99.90
35635;DHT22;21757;43.610;1.440;2023-11-21T10:00:48;12.40;99.90
35635;DHT22;21757;43.610;1.440;2023-11-21T10:03:14;12.30;99.90
35635;DHT22;21757;43.610;1.440;2023-11-21T10:05:42;12.30;99.90
35635;DHT22;21757;43.610;1.440;2023-11-21T10:08:09;12.30;99.90
35635;DHT22;21757;43.610;1.440;2023-11-21T10:10:36;12.30;99.90
35635;DHT22;21757;43.610;1.440;2023-11-21T10:13:07;12.30;99.90
35635;DHT22;21757;43.610;1.440;2023-11-21T10:15:36;12.30;99.90
35635;DHT22;21757;43.610;1.440;2023-11-21T10:18:03;12.40;99.90
35635;DHT22;21757;43.610;1.440;2023-11-21T10:20:30;12.60;99.90
35635;DHT22;21757;43.610;1.440;2023-11-21T10:23:01;12.70;99.90
35635;DHT22;21757;43.610;1.440;2023-11-21T10:25:31;12.70;99.90
35635;DHT22;21757;43.610;1.440;2023-11-21T10:28:01;12.70;99.90
35635;DHT22;21757;43.610;1.440;2023-11-21T10:30:37;12.90;99.90
35635;DHT22;21757;43.610;1.440;2023-11-21T10:33:07;13.00;99.90
35635;DHT22;21757;43.610;1.440;2023-11-21T10:35:45;13.30;99.90
35635;DHT22;21757;43.610;1.440;2023-11-21T10:38:13;13.10;99.90
35635;DHT22;21757;43.610;1.440;2023-11-21T10:40:40;13.30;99.90
35635;DHT22;21757;43.610;1.440;2023-11-21T10:43:10;13.30;99.90
35635;DHT22;21757;43.610;1.440;2023-11-21T10:45:37;13.20;99.90
35635;DHT22;21757;43.610;1.440;2023-11-21T10:48:07;13.10;99.90
35635;DHT22;21757;43.610;1.440;2023-11-21T10:50:37;13.00;99.90
35635;DHT22;21757;43.610;1.440;2023-11-21T10:53:07;12.80;99.90
35635;DHT22;21757;43.610;1.440;2023-11-21T10:55:33;12.80;99.90
35635;DHT22;21757;43.610;1.440;2023-11-21T10:58:02;12.80;99.90
35635;DHT22;21757;43.610;1.440;2023-11-21T11:00:31;12.80;99.90
35635;DHT22;21757;43.610;1.440;2023-11-21T11:02:57;12.80;99.90
35635;DHT22;21757;43.610;1.440;2023-11-21T11:05:29;12.70;99.90
35635;DHT22;21757;43.610;1.440;2023-11-21T11:08:19;12.70;99.90
35635;DHT22;21757;43.610;1.440;2023-11-21T11:10:53;12.30;99.90
35635;DHT22;21757;43.610;1.440;2023-11-21T11:13:19;12.10;99.90
35635;DHT22;21757;43.610;1.440;2023-11-21T11:15:50;12.00;99.20
35635;DHT22;21757;43.610;1.440;2023-11-21T11:18:16;11.80;99.10
35635;DHT22;21757;43.610;1.440;2023-11-21T11:20:44;11.70;99.90
35635;DHT22;21757;43.610;1.440;2023-11-21T11:23:49;11.50;99.90
35635;DHT22;21757;43.610;1.440;2023-11-21T11:26:24;11.40;99.90
35635;DHT22;21757;43.610;1.440;2023-11-21T11:31:55;11.70;1.00
35635;DHT22;21757;43.610;1.440;2023-11-21T11:34:35;11.70;99.90
35635;DHT22;21757;43.610;1.440;2023-11-21T11:37:06;11.90;49.00
35635;DHT22;21757;43.610;1.440;2023-11-21T11:39:42;12.00;1.00
35635;DHT22;21757;43.610;1.440;2023-11-21T11:42:16;12.20;1.00
35635;DHT22;21757;43.610;1.440;2023-11-21T11:47:30;12.10;99.90
35635;DHT22;21757;43.610;1.440;2023-11-21T11:50:12;12.20;99.90
35635;DHT22;21757;43.610;1.440;2023-11-21T11:52:51;12.30;99.90
35635;DHT22;21757;43.610;1.440;2023-11-21T11:55:19;12.20;99.90
35635;DHT22;21757;43.610;1.440;2023-11-21T11:57:47;12.30;99.90
35635;DHT22;21757;43.610;1.440;2023-11-21T12:00:22;12.40;99.90
35635;DHT22;21757;43.610;1.440;2023-11-21T12:02:52;12.30;65.20
35635;DHT22;21757;43.610;1.440;2023-11-21T12:05:20;12.20;1.00
35635;DHT22;21757;43.610;1.440;2023-11-21T12:10:19;12.20;1.00
35635;DHT22;21757;43.610;1.440;2023-11-21T12:12:49;12.30;1.00
35635;DHT22;21757;43.610;1.440;2023-11-21T12:15:16;12.30;1.00
35635;DHT22;21757;43.610;1.440;2023-11-21T12:17:43;12.30;1.00
35635;DHT22;21757;43.610;1.440;2023-11-21T12:20:10;12.20;1.00
35635;DHT22;21757;43.610;1.440;2023-11-21T12:22:46;12.20;1.00
35635;DHT22;21757;43.610;1.440;2023-11-21T12:25:16;12.10;1.00
35635;DHT22;21757;43.610;1.440;2023-11-21T12:27:44;11.90;99.90
35635;DHT22;21757;43.610;1.440;2023-11-21T12:30:12;11.90;99.90
35635;DHT22;21757;43.610;1.440;2023-11-21T12:32:42;11.90;99.90
35635;DHT22;21757;43.610;1.440;2023-11-21T12:35:11;11.90;99.90
35635;DHT22;21757;43.610;1.440;2023-11-21T12:37:38;11.80;99.90
35635;DHT22;21757;43.610;1.440;2023-11-21T12:40:06;12.00;99.90
35635;DHT22;21757;43.610;1.440;2023-11-21T12:42:33;11.90;99.90
35635;DHT22;21757;43.610;1.440;2023-11-21T12:47:50;12.10;99.90
35635;DHT22;21757;43.610;1.440;2023-11-21T12:50:19;12.10;99.90
35635;DHT22;21757;43.610;1.440;2023-11-21T12:52:47;12.20;99.90
35635;DHT22;21757;43.610;1.440;2023-11-21T12:55:17;12.10;99.90
35635;DHT22;21757;43.610;1.440;2023-11-21T12:57:54;12.20;99.90
35635;DHT22;21757;43.610;1.440;2023-11-21T13:00:27;12.20;99.90
35635;DHT22;21757;43.610;1.440;2023-11-21T13:02:57;12.20;99.90
35635;DHT22;21757;43.610;1.440;2023-11-21T13:05:32;12.30;99.90
35635;DHT22;21757;43.610;1.440;2023-11-21T13:08:01;12.20;99.90
35635;DHT22;21757;43.610;1.440;2023-11-21T13:10:30;12.40;99.90
35635;DHT22;21757;43.610;1.440;2023-11-21T13:12:57;12.30;99.90
35635;DHT22;21757;43.610;1.440;2023-11-21T13:15:24;12.30;99.90
35635;DHT22;21757;43.610;1.440;2023-11-21T13:17:51;12.00;99.90
35635;DHT22;21757;43.610;1.440;2023-11-21T13:20:17;12.10;99.90
35635;DHT22;21757;43.610;1.440;2023-11-21T13:22:53;12.00;99.90
35635;DHT22;21757;43.610;1.440;2023-11-21T13:25:23;12.00;99.90
35635;DHT22;21757;43.610;1.440;2023-11-21T13:27:49;12.00;99.90
35635;DHT22;21757;43.610;1.440;2023-11-21T13:30:16;12.10;99.90
35635;DHT22;21757;43.610;1.440;2023-11-21T13:32:43;12.10;99.90
35635;DHT22;21757;43.610;1.440;2023-11-21T13:35:10;12.10;99.90
35635;DHT22;21757;43.610;1.440;2023-11-21T13:37:50;12.00;99.90
35635;DHT22;21757;43.610;1.440;2023-11-21T13:40:22;12.10;99.90
35635;DHT22;21757;43.610;1.440;2023-11-21T13:42:53;12.20;99.90
35635;DHT22;21757;43.610;1.440;2023-11-21T13:45:22;12.20;99.90
35635;DHT22;21757;43.610;1.440;2023-11-21T13:47:49;12.20;99.90
35635;DHT22;21757;43.610;1.440;2023-11-21T13:50:20;12.40;99.90
35635;DHT22;21757;43.610;1.440;2023-11-21T13:52:51;12.30;99.90
35635;DHT22;21757;43.610;1.440;2023-11-21T13:55:19;12.40;99.90
35635;DHT22;21757;43.610;1.440;2023-11-21T13:57:46;12.40;99.90
35635;DHT22;21757;43.610;1.440;2023-11-21T14:00:15;12.50;99.90
35635;DHT22;21757;43.610;1.440;2023-11-21T14:03:00;12.50;99.90
35635;DHT22;21757;43.610;1.440;2023-11-21T14:05:26;12.40;99.90
35635;DHT22;21757;43.610;1.440;2023-11-21T14:07:55;12.40;99.90
35635;DHT22;21757;43.610;1.440;2023-11-21T14:10:22;12.30;99.90
35635;DHT22;21757;43.610;1.440;2023-11-21T14:12:50;12.20;99.90
35635;DHT22;21757;43.610;1.440;2023-11-21T14:15:15;12.20;99.90
35635;DHT22;21757;43.610;1.440;2023-11-21T14:17:44;12.30;99.90
35635;DHT22;21757;43.610;1.440;2023-11-21T14:20:10;12.40;99.90
35635;DHT22;21757;43.610;1.440;2023-11-21T14:22:41;12.50;99.90
35635;DHT22;21757;43.610;1.440;2023-11-21T14:25:07;12.30;99.90
35635;DHT22;21757;43.610;1.440;2023-11-21T14:27:33;12.10;99.90
35635;DHT22;21757;43.610;1.440;2023-11-21T14:29:59;12.10;99.90
35635;DHT22;21757;43.610;1.440;2023-11-21T14:32:25;12.10;99.90
35635;DHT22;21757;43.610;1.440;2023-11-21T14:34:51;12.10;99.90
35635;DHT22;21757;43.610;1.440;2023-11-21T14:37:17;12.30;99.90
35635;DHT22;21757;43.610;1.440;2023-11-21T14:39:43;12.40;99.90
35635;DHT22;21757;43.610;1.440;2023-11-21T14:42:13;12.30;99.90
35635;DHT22;21757;43.610;1.440;2023-11-21T14:44:40;12.40;99.90
35635;DHT22;21757;43.610;1.440;2023-11-21T14:47:08;12.30;99.90
35635;DHT22;21757;43.610;1.440;2023-11-21T14:49:43;12.30;99.90
35635;DHT22;21757;43.610;1.440;2023-11-21T14:52:19;12.20;99.90
35635;DHT22;21757;43.610;1.440;2023-11-21T14:55:01;12.20;99.90
35635;DHT22;21757;43.610;1.440;2023-11-21T14:57:45;12.10;99.90
35635;DHT22;21757;43.610;1.440;2023-11-21T15:00:19;12.10;99.90
35635;DHT22;21757;43.610;1.440;2023-11-21T15:03:08;12.00;99.90
35635;DHT22;21757;43.610;1.440;2023-11-21T15:05:35;12.00;99.90
35635;DHT22;21757;43.610;1.440;2023-11-21T15:08:01;12.00;99.90
35635;DHT22;21757;43.610;1.440;2023-11-21T15:10:53;12.20;99.90
35635;DHT22;21757;43.610;1.440;2023-11-21T15:13:21;12.20;99.90
35635;DHT22;21757;43.610;1.440;2023-11-21T15:15:53;12.10;99.90
35635;DHT22;21757;43.610;1.440;2023-11-21T15:18:20;12.20;99.90
35635;DHT22;21757;43.610;1.440;2023-11-21T15:20:47;12.10;99.90
35635;DHT22;21757;43.610;1.440;2023-11-21T15:23:13;12.10;99.90
35635;DHT22;21757;43.610;1.440;2023-11-21T15:25:39;12.10;99.90
35635;DHT22;21757;43.610;1.440;2023-11-21T15:28:07;12.10;99.90
35635;DHT22;21757;43.610;1.440;2023-11-21T15:30:33;12.10;99.90
35635;DHT22;21757;43.610;1.440;2023-11-21T15:33:00;12.00;99.90
35635;DHT22;21757;43.610;1.440;2023-11-21T15:35:28;12.00;99.90
35635;DHT22;21757;43.610;1.440;2023-11-21T15:37:54;12.00;99.90
35635;DHT22;21757;43.610;1.440;2023-11-21T15:40:23;12.00;99.90
35635;DHT22;21757;43.610;1.440;2023-11-21T15:42:49;12.00;99.90
35635;DHT22;21757;43.610;1.440;2023-11-21T15:45:15;12.00;99.90
35635;DHT22;21757;43.610;1.440;2023-11-21T15:47:44;12.10;99.90